x

9410840 - Santa Monica Pier (icac1) Weather Station

1:54 - Mon 27th Apr 2015 All times are PDT. -7 hours from GMT.

  • Wind
    2mph, 5mph gusts
  • Sea Temp 62°f
  • Luft Temp 65°f
  • Sea Pressure 1013.9mb
  • 9410840 - Santa Monica Pier
  • 9410840 - Santa Monica Pier

More Historic Weather Station data

Upgrade to MSW Pro to gain access to the past 30 days of data for over 8000 Wavebouys and Weather Stations around the globe.

Join Pro

Comparision Forecast

View Surf forecast
   
Mo 04/27 1:54 2 5 mph 1013.9mb 62f 65f
1:48 3 6 mph 1013.9mb 62f 64f
1:42 3 6 mph 1014mb 62f 64f
1:36 6
mph
1014.1mb 62f 64f
1:30 3
mph
1013.9mb 62f 63f
1:24 2 5 mph 1014mb 62f 63f
1:18 3 7 mph 1013.9mb 62f 63f
1:12 7 8 mph 1013.9mb 62f 63f
1:06 7
mph
1013.9mb 62f 63f
1:00 6 7 mph 1014.1mb 62f 63f
12:54 6 11 mph 1014.1mb 62f 63f
12:48 11 13 mph 1014mb 61f 63f
12:42 9 11 mph 1014.2mb 61f 63f
12:36 11 13 mph 1014.2mb 61f 63f
12:30 10 11 mph 1014.2mb 61f 63f
12:24 9 10 mph 1014.2mb 61f 63f
12:18 7 8 mph 1014.3mb 61f 64f
12:12 7 8 mph 1014.5mb 61f 64f
12:06 6 8 mph 1014.5mb 61f 63f
12:00 8
mph
1014.5mb 61f 63f
11:54 6
mph
1014.5mb 60f 63f
11:48 5 6 mph 1014.7mb 60f 63f
11:42 6 7 mph 1014.6mb 60f 63f
11:36 7
mph
1014.7mb 60f 62f
11:30 6
mph
1014.7mb 60f 62f
11:24 5 6 mph 1014.8mb 60f 62f
11:18 5 7 mph 1014.7mb 60f 62f
11:12 7 8 mph 1014.8mb 60f 62f
11:06 6
mph
1014.8mb 60f 62f
11:00 5
mph
1014.9mb 60f 63f
10:54 5 7 mph 1014.8mb 60f 62f
10:48 6 7 mph 1014.9mb 60f 62f
10:42 6
mph
1014.8mb 60f 62f
10:36 3
mph
1014.9mb 60f 63f
10:30 1 5 mph 1014.9mb 60f 63f
10:24 5 6 mph 1014.8mb 59f 62f
10:18 5 6 mph 1014.8mb 59f 62f
10:12 3
mph
1015mb 59f 62f
10:06 3 5 mph 1014.9mb 59f 62f
10:00 3 7 mph 1015mb 59f 63f
9:54 3 5 mph 1014.9mb 59f 62f
9:48 3 5 mph 1014.8mb 59f 62f
9:42 2
mph
1014.9mb 59f 63f
9:36  -  3 mph 1015mb 59f 63f
9:30 2 5 mph 1014.9mb 59f 62f
9:24 3 7 mph 1014.8mb 59f 62f
9:18 6 7 mph 1014.9mb 58f 62f
9:12 5 6 mph 1014.8mb 58f 62f
9:06 6 8 mph 1014.8mb 58f 63f
9:00 6 7 mph 1014.8mb 58f 62f
8:54 7 8 mph 1014.7mb 58f 62f
8:48 8
mph
1014.7mb 58f 63f
8:42  -  1 mph 1014.5mb 58f 66f
8:36 2 5 mph 1014.5mb 58f 65f
8:30 5 6 mph 1014.5mb 58f 63f
8:24 6
mph
1014.5mb 58f 64f
8:18 5 6 mph 1014.4mb 58f 64f
8:12 3 5 mph 1014.3mb 58f 64f
8:00  -  2 mph 1014mb 58f 63f
7:54 2 7 mph 1014mb 58f 62f
7:48 7 8 mph 1013.9mb 58f 61f
7:42 3 7 mph 1013.8mb 58f 62f
7:36 7
mph
1013.8mb 58f 61f
7:30 6 7 mph 1013.8mb 58f 61f
7:24 3 5 mph 1013.9mb 57f 61f
7:18 3
mph
1013.8mb 58f 62f
7:12  -  6 mph 1013.7mb 58f 63f
7:06 5 6 mph 1013.5mb 57f 64f
7:00 2 6 mph 1013.6mb 57f 63f
6:54 3 6 mph 1013.3mb 57f 63f
6:48 1 6 mph 1013.2mb 57f 62f
6:42 2 5 mph 1013.2mb 57f 61f
6:36 5 7 mph 1013.2mb 57f 59f
6:30 3 6 mph 1013.2mb 58f 60f
6:24 2 11 mph 1013.1mb 58f 60f
6:18 5 7 mph 1013.1mb 58f 60f
6:12 6
mph
1013mb 58f 60f
6:06 3 5 mph 1013mb 58f 59f
6:00 2 7 mph 1013.2mb 58f 59f
5:54 6 9 mph 1013.1mb 58f 59f
5:48 5 9 mph 1013.2mb 58f 60f
5:42 7 9 mph 1013mb 58f 60f
5:36 6 8 mph 1013mb 59f 60f
5:30 7 9 mph 1013mb 59f 60f
5:24 7 9 mph 1013mb 59f 60f
5:18 7 9 mph 1013.1mb 60f 59f
5:12 6 7 mph 1013.2mb 60f 59f
5:06 5 6 mph 1013.1mb 60f 59f
5:00 2 5 mph 1013.1mb 60f 60f
4:54 2
mph
1013.1mb 60f 59f
4:48 2 6 mph 1013.1mb 60f 60f
4:42 3 5 mph 1013.1mb 60f 60f
4:36 5 6 mph 1013.1mb 60f 60f
4:30 3 6 mph 1013mb 60f 60f
4:24 5 6 mph 1013mb 60f 60f
4:18 2 3 mph 1013.1mb 60f 60f
4:12 5 6 mph 1013.2mb 60f 60f
4:06 2 5 mph 1013.1mb 60f 60f
4:00 5 6 mph 1013.2mb 60f 61f
3:54 6
mph
1013.4mb 60f 60f
3:48 3 10 mph 1013.3mb 60f 60f
3:42 7 9 mph 1013.2mb 60f 60f
3:36 7 9 mph 1013.3mb 60f 61f
3:30 6 7 mph 1013.3mb 60f 61f
3:24 6 7 mph 1013.2mb 60f 61f
3:18 5 7 mph 1013.4mb 60f 60f
3:12 6 7 mph 1013.2mb 60f 60f
3:06 6
mph
1013.2mb 60f 60f
3:00 3 5 mph 1013.1mb 60f 60f
2:54 5 6 mph 1013.2mb 60f 60f
2:48 2 5 mph 1013.1mb 60f 60f
2:42 5 6 mph 1013.2mb 60f 60f
2:36 3 5 mph 1013.1mb 60f 60f
2:30  -  mph 1013.1mb 60f 60f
2:24  -  mph 1013mb 60f 60f
2:18 6
mph
1013.1mb 60f 60f
2:12 5
mph
1013.2mb 60f 61f
2:06 5 6 mph 1013.2mb 60f 61f
2:00 5 7 mph 1013.2mb 60f 61f
1:54 7 8 mph 1013.3mb 60f 61f
1:48 7 9 mph 1013.3mb 60f 61f
1:42 6 7 mph 1013.4mb 60f 61f
1:36 6 7 mph 1013.4mb 60f 61f
1:30 7 9 mph 1013.4mb 60f 61f
1:24 8 9 mph 1013.5mb 60f 62f
1:06 10 14 mph 1013.6mb 61f 62f
1:00 11 15 mph 1013.6mb 61f 62f
12:54 10 15 mph 1013.6mb 61f 62f
12:48 7 9 mph 1013.6mb 61f 62f
12:42 6 8 mph 1013.6mb 61f 62f
12:36 5 8 mph 1013.6mb 61f 62f
12:30 6 8 mph 1013.7mb 61f 62f
12:24 7 10 mph 1013.7mb 61f 62f
12:18 8 11 mph 1013.8mb 61f 62f
12:12 6 8 mph 1013.7mb 61f 62f
12:06 7 8 mph 1013.8mb 61f 62f
12:00 7 8 mph 1013.8mb 61f 62f
So 04/26 11:48 6 10 mph 1013.6mb 61f 62f
11:18 7 9 mph 1013.4mb 61f 62f
11:06 7 9 mph 1013.4mb 61f 62f
10:54 7 8 mph 1013.3mb 61f 62f
10:48 7 8 mph 1013.3mb 61f 62f
10:42 7 8 mph 1013.3mb 61f 62f
10:36 6 8 mph 1013.3mb 61f 62f
10:30 5 6 mph 1013.2mb 61f 61f
10:24 6 9 mph 1013mb 61f 61f
10:18 9 10 mph 1013mb 61f 61f
10:12 6 8 mph 1012.9mb 61f 61f
10:06 8
mph
1012.8mb 61f 61f
10:00 6 7 mph 1012.9mb 61f 61f
9:54 6
mph
1012.8mb 61f 61f
9:48 1 3 mph - - -
9:42 2 5 mph 1012.7mb 61f 61f
9:36 3
mph
1012.7mb 61f 61f
9:30 3 5 mph 1012.6mb 61f 61f
9:24 6 7 mph 1012.5mb 61f 60f
9:18 5 6 mph 1012.5mb 61f 61f
9:12 5 7 mph 1012.5mb 61f 61f
9:06 5 6 mph 1012.5mb 61f 61f
9:00 3 5 mph 1012.5mb 61f 60f
8:54 3 5 mph 1012.5mb 61f 61f
8:48 5 7 mph 1012.5mb 61f 61f
8:42 6 9 mph 1012.4mb 61f 60f
8:36 7 9 mph 1012.3mb 61f 60f
8:30 6 10 mph 1012.3mb 61f 61f
8:24 7 10 mph 1012.2mb 61f 61f
8:18 8 9 mph 1012.2mb 61f 61f
8:12 7 10 mph 1012.3mb 61f 61f
8:06 9 11 mph 1012.3mb 61f 61f
8:00 10 13 mph 1012.3mb 61f 61f
7:54 10 14 mph 1012.2mb 61f 61f
7:48 9 13 mph 1012.2mb 61f 60f
7:42 11 14 mph 1012.1mb 61f 61f
7:36 8 11 mph 1012.1mb 61f 61f
7:30 8 13 mph 1012mb 61f 61f
7:24 10 14 mph 1011.8mb 61f 62f
7:18 6 13 mph - - -
7:12 9 13 mph 1011.9mb 62f 62f
7:06 11 16 mph 1011.8mb 62f 63f
7:00 13 16 mph 1011.8mb 62f 62f
6:54 10 13 mph 1011.8mb 62f 63f
6:48 15 20 mph 1011.8mb 62f 63f
6:42 20 22 mph 1011.7mb 62f 62f
6:36 15 22 mph 1011.8mb 62f 63f
6:30 18 24 mph 1011.7mb 62f 62f
6:24 18 21 mph 1011.8mb 62f 62f
6:18 16 17 mph - - -
6:12 14 17 mph 1012mb 62f 62f
6:06 10 14 mph 1012mb 62f 64f
6:00 11 18 mph 1012.1mb 62f 64f
5:54 18 22 mph 1011.8mb 62f 63f
5:36 15 18 mph 1012mb 62f 62f
5:30 13 21 mph 1012mb 62f 62f
5:24 16 20 mph 1012.1mb 62f 62f
5:18 14 17 mph 1012.2mb 62f 62f
5:12 14 18 mph 1012.3mb 62f 61f
5:06 16 18 mph 1012.4mb 62f 61f
5:00 17 21 mph 1012.3mb 62f 62f
4:54 9 14 mph 1012.4mb 62f 62f
4:48 11 14 mph 1012.5mb 62f 61f
4:42 10 14 mph 1012.6mb 62f 61f
4:36 6 15 mph 1012.7mb 62f 61f
4:30 14 16 mph 1012.7mb 62f 60f
4:24 15 17 mph 1012.8mb 62f 60f
4:18 17 22 mph 1012.9mb 62f 60f
4:12 17 22 mph 1012.8mb 62f 60f
4:06 11 15 mph 1013.1mb 62f 60f
4:00 14 17 mph 1013.2mb 62f 60f
3:54 15 16 mph 1013.2mb 62f 59f
3:48 14 20 mph 1013.4mb 62f 59f
3:42 13 17 mph 1013.4mb 62f 60f
3:36 15 20 mph 1013.6mb 62f 60f
3:30 20 22 mph 1013.6mb 62f 60f
3:24 22 23 mph 1013.6mb 62f 60f
3:18 17 20 mph - - -
3:12 16 18 mph 1013.9mb 62f 60f
3:06 17 20 mph 1014mb 62f 60f
3:00 18 21 mph 1014.2mb 62f 60f
2:54 18 21 mph 1014.2mb 62f 60f
2:48 18 21 mph 1014.3mb 62f 61f
2:42 17 21 mph 1014.4mb 62f 61f
2:30 11 13 mph 1014.7mb 62f 61f
2:24 9 11 mph 1014.7mb 62f 60f
2:18 10 13 mph 1015mb 62f 60f
2:12 10 14 mph 1015mb 62f 60f
2:06 13 15 mph 1015.2mb 62f 60f
2:00 11 14 mph 1015.2mb 62f 60f
1:54 9 14 mph 1015.1mb 62f 60f
1:48 13 16 mph 1015mb 62f 60f
1:42 15 16 mph 1015mb 62f 60f
1:36 10 11 mph 1015.2mb 62f 60f
1:30 9 11 mph 1015.3mb 61f 60f
1:24 10 11 mph 1015.3mb 61f 60f
1:18 11
mph
1015.3mb - -
1:12 10 13 mph 1015.3mb 61f 59f
1:06 10 13 mph 1015.4mb 61f 59f
1:00 11 13 mph 1015.4mb 61f 59f
12:54 9 10 mph 1015.4mb 60f 60f
12:48 6 8 mph 1015.5mb 60f 60f
12:42 7 8 mph 1015.6mb 60f 60f
12:36 6 9 mph 1015.4mb 60f 60f
12:30 8 9 mph 1015.4mb 60f 60f
12:24 7 10 mph 1015.5mb 60f 60f
12:18 9 10 mph 1015.5mb 60f 59f
12:12 8
mph
1015.6mb 60f 59f
12:06 8 10 mph 1015.8mb 60f 59f
12:00 9
mph
1016mb 60f 59f
11:54 7 8 mph 1016mb 60f 59f
11:48 8 9 mph 1016.1mb 60f 59f
11:42 9
mph
1016.1mb 60f 59f
11:36 6
mph
1016.1mb 60f 60f
11:30 2 5 mph 1016.3mb 60f 60f
11:24 3 6 mph 1016.2mb 60f 60f
11:18 6 9 mph 1016.2mb 60f 60f
11:12 8 9 mph 1016.2mb 60f 60f
11:06 7 8 mph 1016.2mb 59f 60f
11:00 6 7 mph 1016.3mb 59f 59f
10:54 7
mph
1016.3mb 59f 59f
10:48 8 11 mph 1016.4mb 59f 59f
10:42 9 10 mph 1016.3mb 59f 60f
10:36 5 7 mph 1016.5mb 59f 60f
10:30 8
mph
1016.3mb 59f 60f
10:24 3 5 mph 1016.3mb 59f 60f
10:18 3 5 mph 1016.2mb 59f 60f
10:12 5
mph
1016.1mb 59f 60f
10:06 3 6 mph 1016.1mb 59f 60f
10:00 6 7 mph 1016mb 59f 59f
9:54 5 7 mph 1016.1mb 59f 59f
9:48 7 8 mph 1016.1mb 59f 60f
9:42 7 8 mph 1016.1mb 59f 60f
9:36 6 7 mph 1016.1mb 59f 59f
9:30 6 9 mph 1016.1mb 59f 59f
9:24 9 10 mph 1016mb 59f 59f
9:18 7 11 mph 1016.1mb 59f 59f
9:12 11
mph
1015.8mb 59f 59f
9:06 7 11 mph 1015.8mb 59f 58f
9:00 9 10 mph 1015.8mb 59f 59f
8:54 1 10 mph 1015.9mb 59f 59f
8:48 9 10 mph 1015.8mb 59f -
8:42 9 11 mph 1015.9mb 59f 59f
8:36 11 14 mph 1015.7mb 58f 59f
8:30 10 17 mph 1015.6mb 58f 59f
8:24 15 16 mph 1015.5mb 58f 58f
8:18 13 14 mph - - -
8:12 8 10 mph 1015.6mb 58f 59f
8:06 3 7 mph 1015.6mb 58f 59f
8:00 5 8 mph 1015.6mb 58f 59f
7:54 7 10 mph 1015.5mb 58f 59f
7:48 9 10 mph 1015.4mb 58f 59f
7:42 3
mph
1015.4mb 58f 62f
7:36 2 5 mph 1015.4mb 58f 60f
7:30 2 3 mph 1015.2mb 58f 60f
7:24 5 6 mph 1015.1mb 58f 59f
7:18 5 6 mph 1015.1mb 58f 59f
7:12 6 8 mph 1015.1mb 58f 59f
7:06 3 6 mph 1015.1mb 58f 58f
7:00 3 5 mph 1015mb 58f 58f
6:54 5 6 mph 1015mb 58f 58f
6:48 6 7 mph 1014.9mb 58f 58f
6:42 5 6 mph 1015mb 58f 58f
6:36  -  5 mph 1014.9mb 58f 58f
6:30 3 6 mph 1014.9mb 58f 58f
6:24 3 5 mph 1014.8mb 58f 59f
6:18 2 6 mph 1014.5mb 58f 58f
6:12 3 5 mph 1014.5mb 58f 58f
6:06 3 5 mph 1014.6mb 58f 57f
6:00 2 3 mph 1014.5mb 58f 57f
5:54  -  2 mph 1014.4mb 58f 57f
5:48 5 6 mph 1014.4mb 58f 57f
5:42  -  3 mph 1014.4mb 58f 57f
5:36 3 5 mph 1014.4mb 59f 57f
5:30 2 6 mph 1014.2mb 59f 57f
5:24 1 2 mph 1014mb 59f 56f
5:18  -  2 mph 1013.9mb 59f 56f
5:12 2 5 mph 1014mb 59f 57f
5:06 5 6 mph 1013.9mb 59f 57f
5:00 6 8 mph 1014mb 59f 56f
4:54 6 7 mph 1014mb 60f 56f
4:48 5 6 mph 1014mb 60f 56f
4:42 6 8 mph 1013.8mb 60f 56f
4:36 3 7 mph 1013.9mb 60f 56f
4:30 5 9 mph 1013.8mb 60f 56f
4:24 6 8 mph 1013.8mb 60f 56f
4:18 7 8 mph 1013.8mb 60f 56f
4:12 1 3 mph 1013.7mb 60f 56f
4:06 2 5 mph 1013.6mb 60f 56f
4:00 6
mph
1013.7mb 60f 56f
3:54 2 3 mph 1013.5mb 60f 57f
3:48 1 3 mph 1013.5mb 60f 56f
3:42 5 8 mph 1013.6mb 60f 56f
3:36 7 8 mph 1013.5mb 60f 57f
3:30 5 6 mph 1013.5mb 60f 57f
3:24 5
mph
1013.3mb 60f 57f
3:18 1 2 mph 1013.3mb 60f 57f
3:12 2 3 mph 1013.3mb 60f 57f
3:06 2 3 mph 1013.3mb 60f 57f
3:00 2 5 mph 1013.3mb 60f 57f
2:54 3 6 mph 1013.3mb 60f 57f
2:48 2 3 mph 1013.2mb 60f 57f
2:42  -  2 mph 1013.1mb 60f 57f
2:36 1 3 mph 1013.1mb 60f 57f
2:30 2
mph
1013.2mb 60f 57f
2:24 2
mph
1013.1mb 60f 57f
2:18  -  2 mph 1013.2mb 60f 58f
2:12 2 3 mph 1013.1mb 60f 58f
2:06  -  2 mph 1013.1mb 60f 58f
2:00 2 3 mph 1013.1mb 61f 58f
1:54 2 5 mph 1013.2mb 61f 58f
1:48 5 6 mph 1013.2mb 61f 57f
1:42 5
mph
1013.3mb 61f 58f
1:36 3
mph
1013.4mb 61f 58f
1:30 1 6 mph 1013.3mb 60f 58f
1:24 5 6 mph 1013.2mb 61f 58f
1:18 3 5 mph 1013.1mb 61f 58f
1:12 3 5 mph 1013.1mb 61f 59f
1:06 2 5 mph 1013.1mb 61f 59f
1:00 5
mph
1013.2mb 61f 58f
12:54 5
mph
1013.2mb 61f 58f
12:48 1 3 mph 1013.1mb 61f 58f
12:42 1 2 mph 1013.2mb 61f 58f
12:36 2 3 mph 1013.1mb 61f 58f
12:30 2 3 mph 1013.1mb 61f 58f
12:24  -  5 mph 1013.1mb 61f 59f
12:18 2
mph
1013.2mb 61f 59f
12:12 2 6 mph 1013.1mb 61f 59f
12:06 3 5 mph 1013.2mb 61f 59f
12:00 2 5 mph 1013.2mb 61f 59f
Sa 04/25 11:42 5 8 mph - 62f -
11:30 2 8 mph - 62f 59f
11:18 7 9 mph 1012.9mb 62f 59f
10:54 6 8 mph 1012.8mb 62f 59f
10:48 2
mph
1012.8mb 62f 59f
10:42  -  3 mph 1012.7mb 62f 60f
10:36 3 5 mph 1012.9mb 62f 60f
10:30 3 5 mph 1012.8mb 62f 60f
10:24 3 5 mph 1012.8mb 62f 60f
10:06 6 9 mph 1012.5mb 62f 60f
10:00 8 10 mph 1012.4mb 62f 60f
9:54 10 14 mph 1012.4mb 62f 60f
9:48 11 15 mph 1012.2mb 62f 60f
9:42 14 16 mph 1012.2mb 62f 60f
9:36 15 17 mph 1012.2mb 62f 59f
9:30 14 16 mph 1012.2mb 62f 60f
9:24 15 18 mph 1012.2mb 62f 59f
9:18 17 18 mph 1012.2mb 62f 59f
9:12 16 18 mph 1012.2mb 62f 60f
8:54 15 17 mph 1012mb 62f 60f
8:48 14 17 mph 1012mb 62f 60f
8:42 16 17 mph 1011.9mb 62f 59f
8:36 15 17 mph 1011.8mb 62f 60f
8:30 16 18 mph 1011.7mb 62f 59f
8:24 16 18 mph 1011.6mb 62f 60f
8:18 17 20 mph 1011.6mb 62f 59f
8:12 18 22 mph 1011.6mb 62f 59f
8:00 18 21 mph 1011.6mb 62f 59f
7:54 16 18 mph 1011.7mb 62f 59f
7:48 18 21 mph 1011.6mb 62f 59f
7:42 20 22 mph 1011.5mb 62f 59f
7:36 20 23 mph 1011.5mb 63f 59f
7:30 20 22 mph 1011.4mb 63f 59f
7:24 18 21 mph 1011.4mb 63f 59f
7:18 18 21 mph 1011.4mb 63f 59f
7:12 21 23 mph 1011.4mb 63f 59f
7:06 22 25 mph 1011.4mb 63f 59f
7:00 21 26 mph 1011.2mb 63f 59f
6:48 21 28 mph 1011.4mb 63f 59f
6:42 24 30 mph 1011.4mb 63f 59f
6:36 26 31 mph 1011.3mb 63f 59f
6:30 26 31 mph 1011.1mb 63f 59f
6:24 26 30 mph 1011mb 63f 59f
6:18 28 32 mph 1010.9mb 63f 59f
6:12 29 32 mph 1011mb 63f 59f
6:06 28 33 mph 1011.1mb 62f 59f
6:00 29 37 mph 1011.1mb 62f 59f
5:54 30 33 mph 1011.1mb 63f 59f
5:48 26 32 mph 1011.3mb 63f 59f
5:42 28 34 mph 1011.2mb 63f 59f
5:36 29 33 mph 1011.2mb 63f 59f
5:30 28 33 mph 1011.4mb 63f 60f
5:24 25 29 mph 1011.5mb 63f 60f
5:18 26 31 mph 1011.6mb 63f 60f
5:12 25 28 mph 1011.7mb 63f 60f
5:06 18 23 mph 1011.8mb 63f 60f
5:00 22 24 mph 1011.6mb 63f 60f
4:54 17 23 mph 1011.7mb 63f 60f
4:48 21 25 mph 1011.7mb 63f 60f
4:42 20 22 mph 1011.8mb 63f 60f
4:36 20 23 mph 1011.8mb 63f 60f
4:30 23 28 mph 1011.9mb 63f 60f
4:24 21 26 mph 1012mb 63f 60f
4:18 21 25 mph 1012mb 63f 60f
4:12 20 24 mph 1012.1mb 63f 60f
4:06 23 25 mph 1012.1mb 63f 60f
4:00 22 26 mph 1012.1mb 62f 60f
3:54 23 25 mph 1012.2mb 62f 60f
3:48 20 24 mph 1012.5mb 62f 60f
3:42 22 26 mph 1012.6mb 62f 60f
3:36 24 28 mph 1012.6mb 62f 60f
3:30 23 29 mph 1012.7mb 62f 60f
3:24 22 29 mph 1012.8mb 62f 60f
3:18 24 31 mph 1012.9mb 62f 60f
3:12 28 32 mph 1013mb 62f 60f
3:06 28 32 mph 1013mb 62f 60f
3:00 28 32 mph 1013.1mb 62f 60f
2:54 26 33 mph 1013.1mb 62f 60f
2:48 28 32 mph 1013.3mb 62f 60f
2:42 26 31 mph 1013.4mb 62f 60f
2:36 26 32 mph 1013.4mb 62f 60f
2:30 25 32 mph 1013.5mb 62f 60f
2:24 31 37 mph 1013.7mb 62f 60f
2:18 33 36 mph 1013.7mb 62f 60f
2:12 31 36 mph 1013.7mb 62f 60f
2:06 29 33 mph 1013.9mb 62f 60f
2:00 28 31 mph 1014mb 62f 59f
1:54 25 32 mph 1014mb 62f 59f
1:48 20 24 mph 1014.1mb 62f 59f
1:42 23 32 mph 1014.1mb 62f 59f
1:36 28 32 mph 1014.1mb 62f 59f
1:30 28 32 mph 1014.2mb 62f 59f
1:24 29 34 mph 1014.1mb 62f 59f
1:18 28 30 mph 1014mb 62f 59f
1:12 26 32 mph 1014.1mb 62f 59f
1:06 25 30 mph 1014.2mb 62f 59f
1:00 24 29 mph 1014.4mb 62f 59f
12:54 24 31 mph 1014.4mb 62f 59f
12:48 23 28 mph 1014.6mb 61f 59f
12:42 24 26 mph 1014.8mb 61f 59f
12:36 23 29 mph 1014.8mb 61f 59f
12:30 17 21 mph 1015.1mb 62f 59f
12:24 16 20 mph 1015.1mb 62f 59f
12:18 14 16 mph 1015.2mb 62f 59f
12:12 8 9 mph 1015.3mb 62f 59f
12:06 6 8 mph 1015.4mb 62f 59f
12:00 7 8 mph 1015.5mb 62f 58f
11:54 6 10 mph 1015.7mb 62f 58f
11:48 8 9 mph 1015.7mb 62f 58f
11:42 7 8 mph 1015.7mb 62f 58f
11:36 6 8 mph 1015.8mb 62f 58f
11:30 8 9 mph 1016mb 62f 58f
11:24 8 9 mph 1015.9mb 61f 58f
11:18 6 9 mph 1016mb 61f 58f
11:12 7 8 mph 1016mb 61f 58f
11:06 7 10 mph 1015.8mb 61f 58f
11:00 9 11 mph 1015.8mb 61f 58f
10:54 9 10 mph 1016mb 61f 58f
10:36 10 11 mph 1016.1mb 61f 58f
10:30 8 10 mph 1016.2mb 61f 58f
10:24 9 11 mph 1016mb 61f 58f
10:18 7 10 mph 1015.7mb - -
10:12 8 10 mph 1016mb 61f 58f
10:06 9 10 mph 1015.9mb 61f 58f
10:00 9 10 mph 1016mb 61f 58f
9:54 6 7 mph 1016mb 61f 58f
9:48 6 7 mph 1015.7mb 61f 58f
9:42 5 6 mph 1015.9mb 61f 58f
9:30 2 6 mph 1015.8mb 60f 58f
9:24 5 6 mph 1015.9mb 60f 58f
9:18 5 7 mph 1015.9mb 60f 58f
9:12 6 7 mph 1015.8mb 60f 58f
9:06 6 7 mph 1015.7mb 60f 58f
9:00 6
mph
1015.8mb 60f 58f
8:54 3 5 mph 1015.7mb 60f 58f
8:48 3 5 mph 1015.7mb 60f 58f
8:42 3
mph
1015.6mb 60f 59f
8:36 3 6 mph 1015.7mb 60f 59f
8:30 3 6 mph 1015.8mb 60f 58f
8:24 6
mph
1015.8mb 60f 58f
8:06 1 2 mph 1015.7mb 60f 60f
8:00 1 3 mph 1015.6mb 60f 59f
7:54 2 3 mph 1015.6mb 60f 59f
7:48 2
mph
1015.6mb 60f 58f
7:42 1 3 mph 1015.6mb 60f 58f
7:24 2 3 mph 1015.5mb 60f 58f
7:06  -  1 mph 1015.4mb 60f 57f
7:00  -  mph 1015.3mb 60f 57f
6:54  -  1 mph 1015.3mb 60f 57f
6:48  -  1 mph 1015.3mb 60f 57f
6:42 1 2 mph 1015.1mb 61f 57f
6:36 2
mph
1015.1mb 61f 57f
6:30 2
mph
1014.9mb 61f 57f
6:24 1 2 mph 1015mb 61f 57f
6:06 2 3 mph 1015mb 61f 56f
6:00 1
mph
1015.1mb 61f -
5:54 1
mph
1015.2mb 61f 56f
5:48  -  1 mph 1015.3mb 61f 56f
5:42  -  1 mph 1015.2mb 61f 56f
5:36  -  2 mph 1015.2mb 61f 56f
5:30 2
mph
1015.2mb 61f 56f
5:24 1 2 mph 1015.2mb 61f 56f
5:06 2
mph
1015.1mb 61f 57f
5:00 2
mph
1015mb 61f 56f
4:54  -  2 mph 1015.2mb 61f 56f
4:48  -  1 mph 1015.3mb 61f 56f
4:42  -  1 mph 1015.3mb 61f 56f
4:36  -  2 mph 1015.3mb 61f 56f
4:30 1 2 mph 1015.4mb 61f 56f
4:24 2 3 mph 1015.4mb 61f 56f
4:18 3 5 mph - - -
4:12 1 2 mph 1015.5mb 61f 57f
4:06 1 2 mph 1015.5mb 61f 57f
4:00 1 2 mph 1015.5mb 61f 56f
3:54  -  1 mph 1015.5mb 61f 56f
3:48  -  1 mph 1015.5mb 61f 56f
3:42  -  2 mph 1015.4mb 61f 56f
3:36 2
mph
1015.4mb 61f 56f
3:30 2 3 mph 1015.3mb 61f 56f
3:24 2 3 mph 1015.2mb 61f 56f
3:18 3 5 mph 1015.2mb 61f 56f
3:12 2
mph
1015.3mb 61f 57f
3:06 1 2 mph 1015.3mb 60f 57f
3:00  -  2 mph 1015.4mb 60f 57f
2:54 2
mph
1015.4mb 60f 57f
2:48 1 3 mph 1015.5mb 60f 57f
2:42 2 3 mph 1015.5mb 60f 57f
2:36 2 3 mph 1015.4mb 60f 57f
2:30 2 3 mph 1015.4mb 60f 57f
2:24 2 3 mph 1015.4mb 60f 57f
2:18 2 3 mph 1015.5mb 60f 57f
2:12 3 5 mph 1015.5mb 60f 57f
2:06 3 6 mph 1015.6mb 60f 57f
2:00 5
mph
1015.6mb 60f 57f
1:54 5
mph
1015.6mb 60f 57f
1:48 3 5 mph 1015.7mb 60f 56f
1:42 5 6 mph 1015.7mb 60f 56f
1:36 3 6 mph 1015.7mb 60f 57f
1:30 2 5 mph 1015.7mb 60f 57f
1:24 3 5 mph 1015.7mb 60f 57f
1:18 2 3 mph 1015.8mb 60f 57f
1:12 1
mph
1015.9mb 60f 58f
1:06 1 3 mph 1015.9mb 60f 58f
1:00 2 3 mph 1016mb 60f 58f
12:54 3 5 mph 1016mb 60f 58f
12:48 3 5 mph 1016mb 60f 58f
12:42 3 6 mph 1016mb 60f 58f
12:36 2 6 mph 1016mb 60f 58f
12:30 5 6 mph 1016mb 61f 58f
12:24 3
mph
1016mb 61f 58f
12:18 2 3 mph 1015.9mb 61f 58f
12:12 2 3 mph 1015.9mb 62f 58f
12:06 2 3 mph 1015.9mb 62f 58f
12:00 1 3 mph 1016mb 62f 58f
Fr 04/24 11:48 2 3 mph 1016mb 63f 58f
11:42 1 2 mph 1016mb 63f 58f
11:30 2 3 mph 1016.1mb 63f 58f
11:18 3 5 mph 1016.2mb 63f 58f
11:00 5 7 mph 1016.3mb 63f 58f
10:48 8
mph
1016.5mb 63f 58f
10:42 6 7 mph 1016.4mb 63f 58f
10:36 6 8 mph 1016.5mb 63f 58f
10:30 6 8 mph 1016.5mb 63f 58f
10:24 8 9 mph 1016.7mb 63f 58f
10:18 7 9 mph 1016.8mb 63f 59f
10:12 8 9 mph 1016.9mb 63f 59f
10:06 7 8 mph 1016.9mb 63f 59f
10:00 8 9 mph 1016.7mb 63f 59f
9:48 9
mph
1016.7mb 63f 59f
9:42 8 9 mph 1016.8mb 63f 59f
9:36 8 9 mph 1016.7mb 63f 59f
9:30 8 9 mph 1016.6mb 63f 59f
9:24 8 9 mph 1016.6mb 63f 59f
9:18 8 10 mph 1016.5mb 63f 60f
9:12 8 9 mph 1016.4mb 64f 60f
9:00 7 8 mph 1016.3mb 64f 59f
8:54 7
mph
1016.2mb 64f 59f
8:48 7 8 mph 1016.2mb 64f 59f
8:42 7 8 mph 1016.1mb 64f 59f
8:36 6 7 mph 1016mb 64f 59f
8:30 6 7 mph 1016mb 64f 59f
8:24 7 8 mph 1016mb 64f 59f
8:18 7 8 mph 1016mb 64f 59f
8:12 8
mph
1015.9mb 64f 59f
8:06 7 8 mph 1015.8mb 64f 59f
8:00 8 9 mph 1015.7mb 64f 59f
7:54 8 9 mph 1015.7mb 63f 59f
7:48 7 8 mph 1015.7mb 63f 59f
7:42 7 8 mph 1015.7mb 63f 59f
7:36 6 8 mph 1015.7mb 63f 59f
7:30 6 8 mph 1015.7mb 63f 59f
7:24 7 8 mph 1015.7mb 63f 59f
7:18 6 7 mph 1015.7mb 63f 59f
7:12 6 8 mph 1015.7mb 63f 59f
7:06 7 8 mph 1015.7mb 63f 60f
7:00 8
mph
1015.7mb 63f 59f
6:54 7 8 mph 1015.7mb 63f 59f
6:48 8 9 mph 1015.7mb 63f 59f
6:42 8 9 mph 1015.7mb 63f 60f
6:36 8 10 mph 1015.7mb 63f 59f
6:30 8 10 mph 1015.7mb 63f 59f
6:24 8 10 mph 1015.7mb 63f 60f
6:18 9 10 mph 1015.6mb 63f 60f
6:12 10 11 mph 1015.7mb 63f 60f
6:06 10 11 mph 1015.7mb 63f 60f
6:00 11 13 mph 1015.8mb 63f 59f
5:54 11 13 mph 1015.8mb 63f 59f
5:48 11 13 mph 1015.8mb 63f 59f
5:42 11 13 mph 1015.8mb 63f 60f
5:36 11 13 mph 1015.7mb 63f 60f
5:30 11 14 mph 1015.7mb 63f 60f
5:24 13 14 mph 1015.7mb 63f 60f
5:18 13 14 mph 1015.7mb 64f 60f
5:12 13
mph
1015.7mb 64f 60f
5:06 11 14 mph 1015.7mb 64f 60f
5:00 11 13 mph 1015.7mb 64f 60f
4:54 11 14 mph 1015.7mb 64f 60f
4:48 11 13 mph 1015.7mb 63f 60f
4:42 11 13 mph 1015.7mb 63f 59f
4:36 10 11 mph 1015.7mb 63f 59f
4:30 10 11 mph 1015.7mb 63f 59f
4:24 10 11 mph 1015.7mb 63f 59f
4:18 10 11 mph 1015.7mb 63f 59f
4:12 11
mph
1015.7mb 63f 59f
4:06 10 11 mph 1015.7mb 63f 60f
4:00 10 11 mph 1015.6mb 63f 60f
3:54 9 11 mph 1015.7mb 63f 60f
3:48 10 11 mph 1015.6mb 63f 59f
3:42 10 11 mph 1015.7mb 63f 59f
3:36 10 11 mph 1015.7mb 63f 60f
3:30 10 11 mph 1015.8mb 63f 59f
3:24 10
mph
1015.9mb 63f 60f
3:18 9 10 mph 1015.9mb 63f 59f
3:12 9 10 mph 1016mb 63f 59f
3:06 9 10 mph 1016mb 63f 60f
3:00 9 10 mph 1016.1mb 63f 60f
2:54 9 10 mph 1016.1mb 63f 60f
2:48 9 10 mph 1016.1mb 62f 59f
2:42 9 10 mph 1016.2mb 62f 60f
2:36 9 10 mph 1016.2mb 62f 59f
2:30 9 10 mph 1016.2mb 62f 60f
2:24 8 10 mph 1016.3mb 62f 60f
2:18 9
mph
1016.3mb 62f 60f
2:12 9
mph
1016.3mb 62f 59f
2:06 9 10 mph 1016.2mb 62f 60f
2:00 8 9 mph 1016.2mb 62f 60f
1:54 8 9 mph 1016.2mb 62f 60f
1:48 7 8 mph 1016.3mb 62f 60f
1:42 7 8 mph 1016.3mb 62f 60f
1:36 7 9 mph 1016.4mb 61f 60f
1:30 7 9 mph 1016.4mb 61f 59f
1:24 7 8 mph 1016.4mb 61f 59f
1:18 7 8 mph 1016.4mb 61f 59f
1:12 7 8 mph 1016.4mb 61f 59f
1:06 7 9 mph 1016.4mb 61f 59f
1:00 7 8 mph 1016.3mb 61f 59f
12:54 8
mph
1016.4mb 61f 59f
12:48 8 9 mph 1016.4mb 61f 59f
12:42 8
mph
1016.4mb 61f 59f
12:36 7 8 mph 1016.5mb 61f 59f
12:30 6 8 mph 1016.5mb 61f 60f
12:24 6 7 mph 1016.6mb 61f 60f
12:18 7
mph
1016.7mb 61f 59f
12:12 6 7 mph 1016.7mb 61f 59f
12:06 6 7 mph 1016.8mb 61f 59f
12:00 7 8 mph 1016.8mb 61f 59f
11:54 6 7 mph 1016.8mb 61f 59f
11:48 6
mph
1016.8mb 61f 59f
11:42 6 7 mph 1016.8mb 61f 59f
11:36 6 7 mph 1016.9mb 61f 59f
11:30 6 7 mph 1016.8mb 61f 59f
11:24 6 8 mph 1016.8mb 61f 58f
11:18 7 8 mph 1016.8mb 61f -
11:12 8 9 mph 1016.8mb 61f 58f
11:06 9
mph
1016.8mb 61f 59f
11:00 9 10 mph 1016.8mb 61f 59f
10:54 9
mph
1016.8mb 61f 59f
10:48 8 9 mph 1016.8mb 61f 59f
10:42 8 9 mph 1016.8mb 61f 59f
10:36 7 8 mph 1016.8mb 61f 59f
10:30 6 8 mph 1016.7mb 62f 59f
10:24 6 7 mph 1016.6mb 62f 59f
10:18 7 8 mph 1016.6mb 62f 59f
10:12 7 8 mph 1016.5mb 62f 59f
10:06 6 8 mph 1016.5mb 62f 59f
10:00 6 7 mph 1016.4mb 62f 59f
9:54 6 7 mph 1016.4mb 62f 59f
9:48 7
mph
1016.3mb 62f 59f
9:42 6 8 mph 1016.1mb 62f 59f
9:36 6 7 mph 1016mb 62f 59f
9:30 6 7 mph 1016mb 62f 59f
9:24 6
mph
1015.9mb 62f 59f
9:18 5
mph
1015.9mb 62f 59f
9:12 3 5 mph 1015.9mb 62f 59f
9:06 3 6 mph 1015.8mb 62f 59f
9:00 3
mph
1015.7mb 62f 59f
8:54 2 3 mph 1015.6mb 62f 59f
8:48 3
mph
1015.6mb 62f 59f
8:42 2 3 mph 1015.5mb 62f 59f
8:36 2
mph
1015.5mb 62f 59f
8:30 1 2 mph 1015.5mb 62f 59f
8:24 1 2 mph 1015.4mb 62f 59f
8:18 2 3 mph 1015.3mb 62f 59f
8:12  -  2 mph 1015.3mb 62f 59f
8:06 2 3 mph 1015.2mb 62f 59f
8:00 2 5 mph 1015.2mb 62f 59f
7:54 2 3 mph 1015.1mb 62f 59f
7:48 2 3 mph 1015mb - -
7:42 3 5 mph 1014.9mb 62f 59f
7:36 3 5 mph 1014.9mb 62f 60f
7:30 3 5 mph 1014.7mb 62f 60f
7:24 3 5 mph 1014.5mb 62f 59f
7:18 3 5 mph 1014.4mb 62f 59f
7:12 3
mph
1014.4mb 62f 59f
7:06 2 3 mph 1014.4mb 61f 59f
7:00 3 5 mph 1014.3mb 61f 59f
6:54 3
mph
1014.3mb 61f 59f
6:48 2 3 mph 1014.2mb 61f 59f
6:42 3 5 mph 1014.2mb 61f 59f
6:36 5
mph
1014.2mb 61f 59f
6:30 2 6 mph 1014.2mb 61f 59f
6:24 5
mph
1014.2mb 61f 59f
6:18 3 6 mph 1014.1mb 61f 59f
6:12 5 6 mph 1013.9mb 61f 59f
6:06 5 6 mph 1013.9mb 61f 59f
6:00 3 5 mph 1014mb 61f 59f
5:54 5 6 mph 1014mb 61f 59f
5:48 5
mph
1013.9mb 60f 59f
5:42 3 5 mph 1013.8mb 60f 59f
5:36 1 3 mph 1013.6mb 60f 59f
5:30 2 3 mph 1013.7mb 60f 60f
5:24 2
mph
1013.6mb 60f 59f
5:18 1 3 mph 1013.5mb 61f 59f
5:12 2
mph
1013.5mb 61f 59f
5:06 2 3 mph 1013.5mb 61f 59f
5:00 1 3 mph 1013.5mb 61f 59f
4:54 2 3 mph 1013.4mb 61f 59f
4:48 3
mph
1013.4mb 61f 59f
4:42 2 3 mph 1013.4mb 61f 59f
4:36 3 5 mph 1013.5mb 61f 59f
4:30 3
mph
1013.3mb 61f 59f
4:24 3
mph
1013.4mb 61f 59f
4:18 2 3 mph 1013.4mb 62f 59f
4:12 2
mph
1013.5mb 61f 59f
4:06 2
mph
1013.5mb 61f 59f
4:00 1 2 mph 1013.5mb 62f 59f
3:54  -  1 mph 1013.5mb 61f 59f
3:48  -  1 mph 1013.5mb 61f 59f
3:42  -  1 mph 1013.5mb 61f 59f
3:36  -  2 mph 1013.5mb 61f 59f
3:30 2
mph
1013.5mb 61f 59f
3:24 1 3 mph 1013.5mb 61f 59f
3:18 2 3 mph 1013.5mb 61f 59f
3:12 2 3 mph 1013.5mb 62f 59f
3:06 1 5 mph 1013.5mb 62f 59f
3:00 2 5 mph 1013.4mb 62f 59f
2:54 3 5 mph 1013.4mb 62f 59f
2:48  -  mph - 62f 59f
2:42 5 6 mph - 63f 59f
2:36 3 5 mph - 63f 59f
2:30 5 6 mph - - -
2:24 2 5 mph - - -
2:18 3 5 mph - 63f 59f
2:12 3 5 mph - 63f 59f
2:06 3 5 mph - 63f 59f
2:00 2 3 mph 1013.6mb 62f 59f
1:54 2 5 mph 1013.7mb 63f 58f
1:48 3
mph
1013.7mb 62f 58f
1:42 3 5 mph 1013.7mb 62f 58f
1:36 2 3 mph 1013.7mb 63f 58f
1:30 3
mph
1013.8mb 63f 58f
1:24 2 3 mph 1013.8mb 63f 58f
1:18  -  2 mph 1013.9mb 62f 58f
1:12 1 3 mph 1014mb 62f 58f
1:06 2 3 mph 1014mb 63f 58f
1:00 2 3 mph 1014mb 63f 58f
12:54 2 5 mph 1014mb 63f 58f
12:48 3 5 mph 1014.1mb 63f 58f
12:42 3 7 mph 1014.1mb 63f 59f
12:36 6 7 mph 1014.1mb 63f 59f
12:30 6 7 mph 1014.1mb 63f 58f
12:24 6
mph
1014.2mb 63f 59f
12:18 5 6 mph 1014.1mb 63f 58f
12:12 5 6 mph 1014.2mb 63f 58f
12:06 5 9 mph 1014.2mb 63f 59f
12:00 6 7 mph 1014.2mb 63f 58f
Do 04/23 11:48 7 8 mph 1014.3mb 63f 59f
11:42 7 8 mph 1014.3mb 63f 59f
11:30 7 8 mph 1014.3mb 63f 59f
11:06 6 7 mph 1014.1mb 63f 59f
10:48 8 9 mph 1014.2mb 63f 58f
10:42 8 11 mph 1014.3mb 63f 58f
10:36 10 13 mph 1014.3mb 63f 58f
10:30 10 11 mph 1014.3mb 63f 58f
10:24 11 13 mph 1014.2mb 63f 58f
10:18 11 14 mph 1014.2mb 64f 58f
10:12 13 15 mph 1014.2mb 64f 58f
10:00 13 15 mph - - -